sensor_id;sensor_type;location;lat;lon;timestamp;temperature;humidity
75091;DHT22;63674;48.048;8.306;2022-10-16T00:01:47;10.90;99.90
75091;DHT22;63674;48.048;8.306;2022-10-16T00:04:16;10.90;99.90
75091;DHT22;63674;48.048;8.306;2022-10-16T00:06:44;10.90;99.90
75091;DHT22;63674;48.048;8.306;2022-10-16T00:09:13;10.90;99.90
75091;DHT22;63674;48.048;8.306;2022-10-16T00:11:42;10.80;99.90
75091;DHT22;63674;48.048;8.306;2022-10-16T00:14:14;10.80;99.90
75091;DHT22;63674;48.048;8.306;2022-10-16T00:16:43;10.80;99.90
75091;DHT22;63674;48.048;8.306;2022-10-16T00:19:12;10.70;99.90
75091;DHT22;63674;48.048;8.306;2022-10-16T00:21:41;10.70;99.90
75091;DHT22;63674;48.048;8.306;2022-10-16T00:24:10;10.70;99.90
75091;DHT22;63674;48.048;8.306;2022-10-16T00:26:40;10.70;99.90
75091;DHT22;63674;48.048;8.306;2022-10-16T00:29:09;10.70;99.90
75091;DHT22;63674;48.048;8.306;2022-10-16T00:31:39;10.70;99.90
75091;DHT22;63674;48.048;8.306;2022-10-16T00:34:07;10.60;99.90
75091;DHT22;63674;48.048;8.306;2022-10-16T00:36:36;10.60;99.90
75091;DHT22;63674;48.048;8.306;2022-10-16T00:39:05;10.60;99.90
75091;DHT22;63674;48.048;8.306;2022-10-16T00:41:33;10.60;99.90
75091;DHT22;63674;48.048;8.306;2022-10-16T00:44:40;10.60;99.90
75091;DHT22;63674;48.048;8.306;2022-10-16T00:47:19;10.60;99.90
75091;DHT22;63674;48.048;8.306;2022-10-16T00:49:55;10.60;99.90
75091;DHT22;63674;48.048;8.306;2022-10-16T00:52:28;10.70;99.90
75091;DHT22;63674;48.048;8.306;2022-10-16T00:54:58;10.70;99.90
75091;DHT22;63674;48.048;8.306;2022-10-16T00:57:27;10.70;99.90
75091;DHT22;63674;48.048;8.306;2022-10-16T00:59:56;10.70;99.90
75091;DHT22;63674;48.048;8.306;2022-10-16T01:02:27;10.60;99.90
75091;DHT22;63674;48.048;8.306;2022-10-16T01:04:55;10.50;99.90
75091;DHT22;63674;48.048;8.306;2022-10-16T01:07:33;10.50;99.90
75091;DHT22;63674;48.048;8.306;2022-10-16T01:10:17;10.50;99.90
75091;DHT22;63674;48.048;8.306;2022-10-16T01:12:59;10.40;99.90
75091;DHT22;63674;48.048;8.306;2022-10-16T01:15:35;10.40;99.90
75091;DHT22;63674;48.048;8.306;2022-10-16T01:18:14;10.40;99.90
75091;DHT22;63674;48.048;8.306;2022-10-16T01:20:49;10.30;99.90
75091;DHT22;63674;48.048;8.306;2022-10-16T01:23:32;10.40;99.90
75091;DHT22;63674;48.048;8.306;2022-10-16T01:26:35;10.40;99.90
75091;DHT22;63674;48.048;8.306;2022-10-16T01:29:16;10.30;99.90
75091;DHT22;63674;48.048;8.306;2022-10-16T01:31:53;10.30;99.90
75091;DHT22;63674;48.048;8.306;2022-10-16T01:34:31;10.40;99.90
75091;DHT22;63674;48.048;8.306;2022-10-16T01:37:07;10.40;99.90
75091;DHT22;63674;48.048;8.306;2022-10-16T01:39:42;10.40;99.90
75091;DHT22;63674;48.048;8.306;2022-10-16T01:42:18;10.40;99.90
75091;DHT22;63674;48.048;8.306;2022-10-16T01:44:51;10.50;99.90
75091;DHT22;63674;48.048;8.306;2022-10-16T01:47:23;10.50;99.90
75091;DHT22;63674;48.048;8.306;2022-10-16T01:49:59;10.40;99.90
75091;DHT22;63674;48.048;8.306;2022-10-16T01:52:34;10.50;99.90
75091;DHT22;63674;48.048;8.306;2022-10-16T01:55:08;10.50;99.90
75091;DHT22;63674;48.048;8.306;2022-10-16T01:57:44;10.50;99.90
75091;DHT22;63674;48.048;8.306;2022-10-16T02:00:17;10.50;99.90
75091;DHT22;63674;48.048;8.306;2022-10-16T02:02:51;10.50;99.90
75091;DHT22;63674;48.048;8.306;2022-10-16T02:05:26;10.50;99.90
75091;DHT22;63674;48.048;8.306;2022-10-16T02:07:57;10.40;99.90
75091;DHT22;63674;48.048;8.306;2022-10-16T02:10:31;10.40;99.90
75091;DHT22;63674;48.048;8.306;2022-10-16T02:13:05;10.50;99.90
75091;DHT22;63674;48.048;8.306;2022-10-16T02:15:37;10.50;99.90
75091;DHT22;63674;48.048;8.306;2022-10-16T02:18:07;10.40;99.90
75091;DHT22;63674;48.048;8.306;2022-10-16T02:20:42;10.50;99.90
75091;DHT22;63674;48.048;8.306;2022-10-16T02:23:21;10.50;99.90
75091;DHT22;63674;48.048;8.306;2022-10-16T02:25:59;10.50;99.90
75091;DHT22;63674;48.048;8.306;2022-10-16T02:28:34;10.50;99.90
75091;DHT22;63674;48.048;8.306;2022-10-16T02:31:11;10.40;99.90
75091;DHT22;63674;48.048;8.306;2022-10-16T02:33:44;10.40;99.90
75091;DHT22;63674;48.048;8.306;2022-10-16T02:36:14;10.40;99.90
75091;DHT22;63674;48.048;8.306;2022-10-16T02:38:43;10.40;99.90
75091;DHT22;63674;48.048;8.306;2022-10-16T02:41:13;10.40;99.90
75091;DHT22;63674;48.048;8.306;2022-10-16T02:43:42;10.40;99.90
75091;DHT22;63674;48.048;8.306;2022-10-16T02:46:12;10.40;99.90
75091;DHT22;63674;48.048;8.306;2022-10-16T02:48:41;10.40;99.90
75091;DHT22;63674;48.048;8.306;2022-10-16T02:51:09;10.30;99.90
75091;DHT22;63674;48.048;8.306;2022-10-16T02:53:37;10.40;99.90
75091;DHT22;63674;48.048;8.306;2022-10-16T02:56:06;10.30;99.90
75091;DHT22;63674;48.048;8.306;2022-10-16T02:58:35;10.30;99.90
75091;DHT22;63674;48.048;8.306;2022-10-16T03:01:04;10.30;99.90
75091;DHT22;63674;48.048;8.306;2022-10-16T03:03:34;10.30;99.90
75091;DHT22;63674;48.048;8.306;2022-10-16T03:06:03;10.30;99.90
75091;DHT22;63674;48.048;8.306;2022-10-16T03:08:32;10.20;99.90
75091;DHT22;63674;48.048;8.306;2022-10-16T03:11:01;10.20;99.90
75091;DHT22;63674;48.048;8.306;2022-10-16T03:13:30;10.20;99.90
75091;DHT22;63674;48.048;8.306;2022-10-16T03:15:58;10.20;99.90
75091;DHT22;63674;48.048;8.306;2022-10-16T03:18:27;10.20;99.90
75091;DHT22;63674;48.048;8.306;2022-10-16T03:20:57;10.20;99.90
75091;DHT22;63674;48.048;8.306;2022-10-16T03:23:26;10.20;99.90
75091;DHT22;63674;48.048;8.306;2022-10-16T03:25:59;10.20;99.90
75091;DHT22;63674;48.048;8.306;2022-10-16T03:28:28;10.10;99.90
75091;DHT22;63674;48.048;8.306;2022-10-16T03:30:56;10.10;99.90
75091;DHT22;63674;48.048;8.306;2022-10-16T03:33:25;10.20;99.90
75091;DHT22;63674;48.048;8.306;2022-10-16T03:35:54;10.20;99.90
75091;DHT22;63674;48.048;8.306;2022-10-16T03:38:24;10.10;99.90
75091;DHT22;63674;48.048;8.306;2022-10-16T03:40:52;10.10;99.90
75091;DHT22;63674;48.048;8.306;2022-10-16T03:43:21;10.20;99.90
75091;DHT22;63674;48.048;8.306;2022-10-16T03:45:50;10.20;99.90
75091;DHT22;63674;48.048;8.306;2022-10-16T03:48:19;10.10;99.90
75091;DHT22;63674;48.048;8.306;2022-10-16T03:50:48;10.20;99.90
75091;DHT22;63674;48.048;8.306;2022-10-16T03:53:17;10.20;99.90
75091;DHT22;63674;48.048;8.306;2022-10-16T03:55:47;10.10;99.90
75091;DHT22;63674;48.048;8.306;2022-10-16T03:58:16;10.20;99.90
75091;DHT22;63674;48.048;8.306;2022-10-16T04:00:45;10.20;99.90
75091;DHT22;63674;48.048;8.306;2022-10-16T04:03:14;10.20;99.90
75091;DHT22;63674;48.048;8.306;2022-10-16T04:05:44;10.20;99.90
75091;DHT22;63674;48.048;8.306;2022-10-16T04:08:12;10.30;99.90
75091;DHT22;63674;48.048;8.306;2022-10-16T04:10:42;10.20;99.90
75091;DHT22;63674;48.048;8.306;2022-10-16T04:13:12;10.10;99.90
75091;DHT22;63674;48.048;8.306;2022-10-16T04:15:41;10.10;99.90
75091;DHT22;63674;48.048;8.306;2022-10-16T04:18:10;10.20;99.90
75091;DHT22;63674;48.048;8.306;2022-10-16T04:20:39;10.30;99.90
75091;DHT22;63674;48.048;8.306;2022-10-16T04:23:08;10.30;99.90
75091;DHT22;63674;48.048;8.306;2022-10-16T04:25:37;10.20;99.90
75091;DHT22;63674;48.048;8.306;2022-10-16T04:28:06;10.20;99.90
75091;DHT22;63674;48.048;8.306;2022-10-16T04:30:37;10.20;99.90
75091;DHT22;63674;48.048;8.306;2022-10-16T04:33:08;10.20;99.90
75091;DHT22;63674;48.048;8.306;2022-10-16T04:35:37;10.20;99.90
75091;DHT22;63674;48.048;8.306;2022-10-16T04:38:06;10.10;99.90
75091;DHT22;63674;48.048;8.306;2022-10-16T04:40:34;10.10;99.90
75091;DHT22;63674;48.048;8.306;2022-10-16T04:43:03;10.00;99.90
75091;DHT22;63674;48.048;8.306;2022-10-16T04:45:32;9.90;99.90
75091;DHT22;63674;48.048;8.306;2022-10-16T04:48:02;10.00;99.90
75091;DHT22;63674;48.048;8.306;2022-10-16T04:50:31;10.00;99.90
75091;DHT22;63674;48.048;8.306;2022-10-16T04:53:00;10.00;99.90
75091;DHT22;63674;48.048;8.306;2022-10-16T04:55:29;10.00;99.90
75091;DHT22;63674;48.048;8.306;2022-10-16T04:57:58;10.00;99.90
75091;DHT22;63674;48.048;8.306;2022-10-16T05:00:26;10.10;99.90
75091;DHT22;63674;48.048;8.306;2022-10-16T05:02:55;10.10;99.90
75091;DHT22;63674;48.048;8.306;2022-10-16T05:05:25;10.10;99.90
75091;DHT22;63674;48.048;8.306;2022-10-16T05:07:54;10.10;99.90
75091;DHT22;63674;48.048;8.306;2022-10-16T05:10:23;10.10;99.90
75091;DHT22;63674;48.048;8.306;2022-10-16T05:12:51;10.10;99.90
75091;DHT22;63674;48.048;8.306;2022-10-16T05:15:20;10.10;99.90
75091;DHT22;63674;48.048;8.306;2022-10-16T05:17:53;10.10;99.90
75091;DHT22;63674;48.048;8.306;2022-10-16T05:20:22;10.10;99.90
75091;DHT22;63674;48.048;8.306;2022-10-16T05:22:52;10.20;99.90
75091;DHT22;63674;48.048;8.306;2022-10-16T05:25:21;10.20;99.90
75091;DHT22;63674;48.048;8.306;2022-10-16T05:27:50;10.20;99.90
75091;DHT22;63674;48.048;8.306;2022-10-16T05:30:18;10.10;99.90
75091;DHT22;63674;48.048;8.306;2022-10-16T05:32:47;10.10;99.90
75091;DHT22;63674;48.048;8.306;2022-10-16T05:35:17;10.10;99.90
75091;DHT22;63674;48.048;8.306;2022-10-16T05:37:48;10.10;99.90
75091;DHT22;63674;48.048;8.306;2022-10-16T05:40:17;10.20;99.90
75091;DHT22;63674;48.048;8.306;2022-10-16T05:42:46;10.10;99.90
75091;DHT22;63674;48.048;8.306;2022-10-16T05:45:15;10.10;99.90
75091;DHT22;63674;48.048;8.306;2022-10-16T05:47:43;10.10;99.90
75091;DHT22;63674;48.048;8.306;2022-10-16T05:50:12;10.10;99.90
75091;DHT22;63674;48.048;8.306;2022-10-16T05:52:40;10.10;99.90
75091;DHT22;63674;48.048;8.306;2022-10-16T05:55:09;10.10;99.90
75091;DHT22;63674;48.048;8.306;2022-10-16T05:57:39;10.10;99.90
75091;DHT22;63674;48.048;8.306;2022-10-16T06:00:08;10.10;99.90
75091;DHT22;63674;48.048;8.306;2022-10-16T06:02:38;10.10;99.90
75091;DHT22;63674;48.048;8.306;2022-10-16T06:05:07;10.00;99.90
75091;DHT22;63674;48.048;8.306;2022-10-16T06:07:35;10.00;99.90
75091;DHT22;63674;48.048;8.306;2022-10-16T06:10:05;10.00;99.90
75091;DHT22;63674;48.048;8.306;2022-10-16T06:12:34;10.00;99.90
75091;DHT22;63674;48.048;8.306;2022-10-16T06:15:05;10.00;99.90
75091;DHT22;63674;48.048;8.306;2022-10-16T06:17:34;10.10;99.90
75091;DHT22;63674;48.048;8.306;2022-10-16T06:20:03;10.20;99.90
75091;DHT22;63674;48.048;8.306;2022-10-16T06:22:31;10.20;99.90
75091;DHT22;63674;48.048;8.306;2022-10-16T06:25:00;10.20;99.90
75091;DHT22;63674;48.048;8.306;2022-10-16T06:27:28;10.20;99.90
75091;DHT22;63674;48.048;8.306;2022-10-16T06:29:57;10.30;99.90
75091;DHT22;63674;48.048;8.306;2022-10-16T06:32:27;10.30;99.90
75091;DHT22;63674;48.048;8.306;2022-10-16T06:34:56;10.40;99.90
75091;DHT22;63674;48.048;8.306;2022-10-16T06:37:24;10.40;99.90
75091;DHT22;63674;48.048;8.306;2022-10-16T06:39:53;10.40;99.90
75091;DHT22;63674;48.048;8.306;2022-10-16T06:42:22;10.50;99.90
75091;DHT22;63674;48.048;8.306;2022-10-16T06:44:51;10.60;99.90
75091;DHT22;63674;48.048;8.306;2022-10-16T06:47:20;10.60;99.90
75091;DHT22;63674;48.048;8.306;2022-10-16T06:49:50;10.60;99.90
75091;DHT22;63674;48.048;8.306;2022-10-16T06:52:20;10.70;99.90
75091;DHT22;63674;48.048;8.306;2022-10-16T06:54:49;10.70;99.90
75091;DHT22;63674;48.048;8.306;2022-10-16T06:57:18;10.70;99.90
75091;DHT22;63674;48.048;8.306;2022-10-16T06:59:46;10.70;99.90
75091;DHT22;63674;48.048;8.306;2022-10-16T07:02:21;10.80;99.90
75091;DHT22;63674;48.048;8.306;2022-10-16T07:04:51;10.80;99.90
75091;DHT22;63674;48.048;8.306;2022-10-16T07:07:20;10.80;99.90
75091;DHT22;63674;48.048;8.306;2022-10-16T07:09:51;10.80;99.90
75091;DHT22;63674;48.048;8.306;2022-10-16T07:12:20;10.90;99.90
75091;DHT22;63674;48.048;8.306;2022-10-16T07:14:49;10.90;99.90
75091;DHT22;63674;48.048;8.306;2022-10-16T07:17:19;10.90;99.90
75091;DHT22;63674;48.048;8.306;2022-10-16T07:19:47;11.00;99.90
75091;DHT22;63674;48.048;8.306;2022-10-16T07:22:17;11.00;99.90
75091;DHT22;63674;48.048;8.306;2022-10-16T07:24:46;11.00;99.90
75091;DHT22;63674;48.048;8.306;2022-10-16T07:27:18;11.10;99.90
75091;DHT22;63674;48.048;8.306;2022-10-16T07:29:49;11.10;99.90
75091;DHT22;63674;48.048;8.306;2022-10-16T07:32:18;11.10;99.90
75091;DHT22;63674;48.048;8.306;2022-10-16T07:34:46;11.20;99.90
75091;DHT22;63674;48.048;8.306;2022-10-16T07:37:16;11.20;99.90
75091;DHT22;63674;48.048;8.306;2022-10-16T07:39:45;11.20;99.90
75091;DHT22;63674;48.048;8.306;2022-10-16T07:42:14;11.30;99.90
75091;DHT22;63674;48.048;8.306;2022-10-16T07:44:42;11.30;99.90
75091;DHT22;63674;48.048;8.306;2022-10-16T07:47:11;11.30;99.90
75091;DHT22;63674;48.048;8.306;2022-10-16T07:49:40;11.40;99.90
75091;DHT22;63674;48.048;8.306;2022-10-16T07:52:08;11.40;99.90
75091;DHT22;63674;48.048;8.306;2022-10-16T07:54:38;11.50;99.90
75091;DHT22;63674;48.048;8.306;2022-10-16T07:57:07;11.50;99.90
75091;DHT22;63674;48.048;8.306;2022-10-16T07:59:35;11.60;99.90
75091;DHT22;63674;48.048;8.306;2022-10-16T08:02:04;11.60;99.90
75091;DHT22;63674;48.048;8.306;2022-10-16T08:04:32;11.70;99.90
75091;DHT22;63674;48.048;8.306;2022-10-16T08:07:01;11.70;99.90
75091;DHT22;63674;48.048;8.306;2022-10-16T08:09:29;11.80;99.90
75091;DHT22;63674;48.048;8.306;2022-10-16T08:11:59;11.80;99.90
75091;DHT22;63674;48.048;8.306;2022-10-16T08:14:29;11.90;99.90
75091;DHT22;63674;48.048;8.306;2022-10-16T08:16:57;12.00;99.90
75091;DHT22;63674;48.048;8.306;2022-10-16T08:19:26;12.20;99.90
75091;DHT22;63674;48.048;8.306;2022-10-16T08:21:54;12.30;99.90
75091;DHT22;63674;48.048;8.306;2022-10-16T08:24:23;12.30;99.90
75091;DHT22;63674;48.048;8.306;2022-10-16T08:26:53;12.40;99.90
75091;DHT22;63674;48.048;8.306;2022-10-16T08:29:23;12.50;99.90
75091;DHT22;63674;48.048;8.306;2022-10-16T08:31:52;12.50;99.90
75091;DHT22;63674;48.048;8.306;2022-10-16T08:34:20;12.50;99.90
75091;DHT22;63674;48.048;8.306;2022-10-16T08:36:49;12.50;99.90
75091;DHT22;63674;48.048;8.306;2022-10-16T08:39:17;12.60;99.90
75091;DHT22;63674;48.048;8.306;2022-10-16T08:42:11;12.60;99.90
75091;DHT22;63674;48.048;8.306;2022-10-16T08:45:12;12.70;99.90
75091;DHT22;63674;48.048;8.306;2022-10-16T08:47:58;12.80;99.90
75091;DHT22;63674;48.048;8.306;2022-10-16T08:50:38;12.90;99.90
75091;DHT22;63674;48.048;8.306;2022-10-16T08:53:13;13.00;99.90
75091;DHT22;63674;48.048;8.306;2022-10-16T08:55:49;13.00;99.90
75091;DHT22;63674;48.048;8.306;2022-10-16T08:58:20;13.00;99.90
75091;DHT22;63674;48.048;8.306;2022-10-16T09:00:53;13.10;99.90
75091;DHT22;63674;48.048;8.306;2022-10-16T09:06:35;13.20;99.90
75091;DHT22;63674;48.048;8.306;2022-10-16T09:09:29;13.30;99.90
75091;DHT22;63674;48.048;8.306;2022-10-16T09:12:17;13.30;99.90
75091;DHT22;63674;48.048;8.306;2022-10-16T09:15:01;13.40;99.90
75091;DHT22;63674;48.048;8.306;2022-10-16T09:17:45;13.40;99.90
75091;DHT22;63674;48.048;8.306;2022-10-16T09:20:30;13.50;99.90
75091;DHT22;63674;48.048;8.306;2022-10-16T09:23:18;13.60;99.90
75091;DHT22;63674;48.048;8.306;2022-10-16T09:25:49;13.60;99.90
75091;DHT22;63674;48.048;8.306;2022-10-16T09:28:19;13.60;99.90
75091;DHT22;63674;48.048;8.306;2022-10-16T09:30:48;13.60;99.90
75091;DHT22;63674;48.048;8.306;2022-10-16T09:33:21;13.70;99.90
75091;DHT22;63674;48.048;8.306;2022-10-16T09:35:55;13.70;99.90
75091;DHT22;63674;48.048;8.306;2022-10-16T09:38:27;13.80;99.90
75091;DHT22;63674;48.048;8.306;2022-10-16T09:40:58;13.80;99.90
75091;DHT22;63674;48.048;8.306;2022-10-16T09:43:34;14.00;99.90
75091;DHT22;63674;48.048;8.306;2022-10-16T09:46:08;14.10;99.90
75091;DHT22;63674;48.048;8.306;2022-10-16T09:48:58;14.30;99.90
75091;DHT22;63674;48.048;8.306;2022-10-16T09:51:29;14.40;99.90
75091;DHT22;63674;48.048;8.306;2022-10-16T09:54:01;14.60;99.90
75091;DHT22;63674;48.048;8.306;2022-10-16T09:56:40;14.70;99.90
75091;DHT22;63674;48.048;8.306;2022-10-16T09:59:14;14.70;99.90
75091;DHT22;63674;48.048;8.306;2022-10-16T10:01:47;14.80;99.90
75091;DHT22;63674;48.048;8.306;2022-10-16T10:04:20;15.10;99.90
75091;DHT22;63674;48.048;8.306;2022-10-16T10:06:51;15.30;99.90
75091;DHT22;63674;48.048;8.306;2022-10-16T10:09:23;15.40;99.90
75091;DHT22;63674;48.048;8.306;2022-10-16T10:11:55;15.30;99.90
75091;DHT22;63674;48.048;8.306;2022-10-16T10:14:28;15.20;99.50
75091;DHT22;63674;48.048;8.306;2022-10-16T10:17:11;15.10;99.00
75091;DHT22;63674;48.048;8.306;2022-10-16T10:19:48;15.10;99.40
75091;DHT22;63674;48.048;8.306;2022-10-16T10:22:23;15.10;98.40
75091;DHT22;63674;48.048;8.306;2022-10-16T10:24:56;15.10;99.10
75091;DHT22;63674;48.048;8.306;2022-10-16T10:27:32;15.10;99.20
75091;DHT22;63674;48.048;8.306;2022-10-16T10:30:09;15.20;97.80
75091;DHT22;63674;48.048;8.306;2022-10-16T10:32:49;15.30;98.60
75091;DHT22;63674;48.048;8.306;2022-10-16T10:35:36;15.50;98.40
75091;DHT22;63674;48.048;8.306;2022-10-16T10:38:24;15.70;97.70
75091;DHT22;63674;48.048;8.306;2022-10-16T10:41:09;15.70;98.20
75091;DHT22;63674;48.048;8.306;2022-10-16T10:43:54;16.00;96.40
75091;DHT22;63674;48.048;8.306;2022-10-16T10:46:34;16.20;95.90
75091;DHT22;63674;48.048;8.306;2022-10-16T10:49:24;16.50;95.70
75091;DHT22;63674;48.048;8.306;2022-10-16T10:52:22;17.10;92.90
75091;DHT22;63674;48.048;8.306;2022-10-16T10:55:09;17.00;94.00
75091;DHT22;63674;48.048;8.306;2022-10-16T10:58:00;17.20;91.40
75091;DHT22;63674;48.048;8.306;2022-10-16T11:00:50;17.30;92.40
75091;DHT22;63674;48.048;8.306;2022-10-16T11:03:49;17.40;92.60
75091;DHT22;63674;48.048;8.306;2022-10-16T11:06:33;17.40;92.70
75091;DHT22;63674;48.048;8.306;2022-10-16T11:09:09;17.40;92.90
75091;DHT22;63674;48.048;8.306;2022-10-16T11:11:45;17.40;93.30
75091;DHT22;63674;48.048;8.306;2022-10-16T11:14:20;17.40;92.60
75091;DHT22;63674;48.048;8.306;2022-10-16T11:16:54;17.30;93.60
75091;DHT22;63674;48.048;8.306;2022-10-16T11:19:34;17.20;93.60
75091;DHT22;63674;48.048;8.306;2022-10-16T11:22:14;17.10;92.70
75091;DHT22;63674;48.048;8.306;2022-10-16T11:24:53;17.10;94.10
75091;DHT22;63674;48.048;8.306;2022-10-16T11:27:36;17.30;91.20
75091;DHT22;63674;48.048;8.306;2022-10-16T11:30:16;17.50;93.20
75091;DHT22;63674;48.048;8.306;2022-10-16T11:33:04;17.70;91.40
75091;DHT22;63674;48.048;8.306;2022-10-16T11:35:51;18.10;89.90
75091;DHT22;63674;48.048;8.306;2022-10-16T11:38:28;18.90;76.90
75091;DHT22;63674;48.048;8.306;2022-10-16T11:41:04;19.00;78.90
75091;DHT22;63674;48.048;8.306;2022-10-16T11:43:45;19.30;74.20
75091;DHT22;63674;48.048;8.306;2022-10-16T11:46:22;19.60;83.40
75091;DHT22;63674;48.048;8.306;2022-10-16T11:49:00;19.70;78.60
75091;DHT22;63674;48.048;8.306;2022-10-16T11:51:38;19.60;77.90
75091;DHT22;63674;48.048;8.306;2022-10-16T11:54:18;19.70;74.10
75091;DHT22;63674;48.048;8.306;2022-10-16T11:56:59;19.70;73.60
75091;DHT22;63674;48.048;8.306;2022-10-16T11:59:40;19.70;75.40
75091;DHT22;63674;48.048;8.306;2022-10-16T12:02:30;19.70;77.20
75091;DHT22;63674;48.048;8.306;2022-10-16T12:05:16;19.70;79.50
75091;DHT22;63674;48.048;8.306;2022-10-16T12:08:00;19.70;79.10
75091;DHT22;63674;48.048;8.306;2022-10-16T12:10:34;19.70;73.70
75091;DHT22;63674;48.048;8.306;2022-10-16T12:13:29;19.70;75.80
75091;DHT22;63674;48.048;8.306;2022-10-16T12:16:21;19.90;81.00
75091;DHT22;63674;48.048;8.306;2022-10-16T12:19:09;20.00;81.80
75091;DHT22;63674;48.048;8.306;2022-10-16T12:21:40;20.10;79.20
75091;DHT22;63674;48.048;8.306;2022-10-16T12:24:22;20.10;81.50
75091;DHT22;63674;48.048;8.306;2022-10-16T12:26:59;20.10;80.60
75091;DHT22;63674;48.048;8.306;2022-10-16T12:29:34;20.20;80.60
75091;DHT22;63674;48.048;8.306;2022-10-16T12:32:22;20.20;80.10
75091;DHT22;63674;48.048;8.306;2022-10-16T12:35:19;20.10;81.70
75091;DHT22;63674;48.048;8.306;2022-10-16T12:37:50;20.00;82.10
75091;DHT22;63674;48.048;8.306;2022-10-16T12:40:29;19.90;80.20
75091;DHT22;63674;48.048;8.306;2022-10-16T12:42:59;19.80;82.00
75091;DHT22;63674;48.048;8.306;2022-10-16T12:45:41;19.90;82.80
75091;DHT22;63674;48.048;8.306;2022-10-16T12:48:21;19.90;82.90
75091;DHT22;63674;48.048;8.306;2022-10-16T12:51:19;20.00;82.90
75091;DHT22;63674;48.048;8.306;2022-10-16T12:54:01;20.00;82.60
75091;DHT22;63674;48.048;8.306;2022-10-16T12:56:43;20.10;83.10
75091;DHT22;63674;48.048;8.306;2022-10-16T12:59:29;20.00;83.40
75091;DHT22;63674;48.048;8.306;2022-10-16T13:02:33;20.00;80.40
75091;DHT22;63674;48.048;8.306;2022-10-16T13:05:23;19.90;81.90
75091;DHT22;63674;48.048;8.306;2022-10-16T13:08:07;20.00;81.60
75091;DHT22;63674;48.048;8.306;2022-10-16T13:10:58;19.90;82.90
75091;DHT22;63674;48.048;8.306;2022-10-16T13:13:56;19.90;81.40
75091;DHT22;63674;48.048;8.306;2022-10-16T13:16:49;19.90;81.00
75091;DHT22;63674;48.048;8.306;2022-10-16T13:19:32;19.90;80.50
75091;DHT22;63674;48.048;8.306;2022-10-16T13:22:16;20.00;78.90
75091;DHT22;63674;48.048;8.306;2022-10-16T13:25:06;20.00;79.70
75091;DHT22;63674;48.048;8.306;2022-10-16T13:27:51;20.00;77.90
75091;DHT22;63674;48.048;8.306;2022-10-16T13:30:24;20.00;80.60
75091;DHT22;63674;48.048;8.306;2022-10-16T13:33:00;20.00;78.90
75091;DHT22;63674;48.048;8.306;2022-10-16T13:35:33;19.90;80.70
75091;DHT22;63674;48.048;8.306;2022-10-16T13:38:14;19.90;76.40
75091;DHT22;63674;48.048;8.306;2022-10-16T13:40:55;19.90;78.10
75091;DHT22;63674;48.048;8.306;2022-10-16T13:43:27;19.80;78.60
75091;DHT22;63674;48.048;8.306;2022-10-16T13:46:01;19.80;77.30
75091;DHT22;63674;48.048;8.306;2022-10-16T13:48:32;19.70;76.50
75091;DHT22;63674;48.048;8.306;2022-10-16T13:51:05;19.80;79.70
75091;DHT22;63674;48.048;8.306;2022-10-16T13:53:40;19.80;75.70
75091;DHT22;63674;48.048;8.306;2022-10-16T13:56:11;19.70;75.20
75091;DHT22;63674;48.048;8.306;2022-10-16T13:58:42;19.70;74.60
75091;DHT22;63674;48.048;8.306;2022-10-16T14:01:18;19.70;75.20
75091;DHT22;63674;48.048;8.306;2022-10-16T14:04:05;19.60;74.00
75091;DHT22;63674;48.048;8.306;2022-10-16T14:06:41;19.50;73.50
75091;DHT22;63674;48.048;8.306;2022-10-16T14:09:21;19.50;72.40
75091;DHT22;63674;48.048;8.306;2022-10-16T14:11:53;19.40;73.50
75091;DHT22;63674;48.048;8.306;2022-10-16T14:14:24;19.30;73.30
75091;DHT22;63674;48.048;8.306;2022-10-16T14:16:56;19.20;74.00
75091;DHT22;63674;48.048;8.306;2022-10-16T14:19:27;19.10;73.40
75091;DHT22;63674;48.048;8.306;2022-10-16T14:22:00;19.10;75.50
75091;DHT22;63674;48.048;8.306;2022-10-16T14:24:33;19.10;75.80
75091;DHT22;63674;48.048;8.306;2022-10-16T14:27:23;19.00;75.50
75091;DHT22;63674;48.048;8.306;2022-10-16T14:30:16;19.10;75.60
75091;DHT22;63674;48.048;8.306;2022-10-16T14:32:57;19.00;76.10
75091;DHT22;63674;48.048;8.306;2022-10-16T14:35:29;19.00;78.00
75091;DHT22;63674;48.048;8.306;2022-10-16T14:38:02;19.10;78.00
75091;DHT22;63674;48.048;8.306;2022-10-16T14:40:35;19.00;75.90
75091;DHT22;63674;48.048;8.306;2022-10-16T14:43:05;19.00;75.40
75091;DHT22;63674;48.048;8.306;2022-10-16T14:45:35;18.90;76.00
75091;DHT22;63674;48.048;8.306;2022-10-16T14:48:12;18.90;76.80
75091;DHT22;63674;48.048;8.306;2022-10-16T14:50:45;18.80;76.40
75091;DHT22;63674;48.048;8.306;2022-10-16T14:53:16;18.80;75.10
75091;DHT22;63674;48.048;8.306;2022-10-16T14:55:45;18.80;76.10
75091;DHT22;63674;48.048;8.306;2022-10-16T14:58:16;18.80;77.50
75091;DHT22;63674;48.048;8.306;2022-10-16T15:00:47;18.80;78.20
75091;DHT22;63674;48.048;8.306;2022-10-16T15:03:17;18.70;79.10
75091;DHT22;63674;48.048;8.306;2022-10-16T15:05:45;18.70;77.50
75091;DHT22;63674;48.048;8.306;2022-10-16T15:08:14;18.70;78.10
75091;DHT22;63674;48.048;8.306;2022-10-16T15:10:44;18.60;78.20
75091;DHT22;63674;48.048;8.306;2022-10-16T15:13:13;18.60;79.00
75091;DHT22;63674;48.048;8.306;2022-10-16T15:15:43;18.50;79.10
75091;DHT22;63674;48.048;8.306;2022-10-16T15:18:14;18.50;78.10
75091;DHT22;63674;48.048;8.306;2022-10-16T15:20:48;18.50;78.80
75091;DHT22;63674;48.048;8.306;2022-10-16T15:23:21;18.50;81.90
75091;DHT22;63674;48.048;8.306;2022-10-16T15:25:56;18.40;81.20
75091;DHT22;63674;48.048;8.306;2022-10-16T15:28:25;18.30;82.70
75091;DHT22;63674;48.048;8.306;2022-10-16T15:31:11;18.30;84.20
75091;DHT22;63674;48.048;8.306;2022-10-16T15:33:39;18.20;87.10
75091;DHT22;63674;48.048;8.306;2022-10-16T15:36:08;18.20;87.70
75091;DHT22;63674;48.048;8.306;2022-10-16T15:38:38;18.20;85.20
75091;DHT22;63674;48.048;8.306;2022-10-16T15:41:07;18.20;84.90
75091;DHT22;63674;48.048;8.306;2022-10-16T15:43:36;18.10;85.90
75091;DHT22;63674;48.048;8.306;2022-10-16T15:46:08;18.00;86.70
75091;DHT22;63674;48.048;8.306;2022-10-16T15:48:41;17.90;88.60
75091;DHT22;63674;48.048;8.306;2022-10-16T15:51:10;17.80;89.00
75091;DHT22;63674;48.048;8.306;2022-10-16T15:53:40;17.70;88.40
75091;DHT22;63674;48.048;8.306;2022-10-16T15:56:10;17.70;88.00
75091;DHT22;63674;48.048;8.306;2022-10-16T15:58:39;17.50;88.80
75091;DHT22;63674;48.048;8.306;2022-10-16T16:01:07;17.40;89.90
75091;DHT22;63674;48.048;8.306;2022-10-16T16:03:38;17.20;90.40
75091;DHT22;63674;48.048;8.306;2022-10-16T16:06:10;17.10;90.30
75091;DHT22;63674;48.048;8.306;2022-10-16T16:08:42;16.90;90.50
75091;DHT22;63674;48.048;8.306;2022-10-16T16:11:12;16.80;90.70
75091;DHT22;63674;48.048;8.306;2022-10-16T16:13:41;16.70;91.00
75091;DHT22;63674;48.048;8.306;2022-10-16T16:16:11;16.60;91.40